sensor_id;sensor_type;location;lat;lon;timestamp;pressure;altitude;pressure_sealevel;temperature
71807;BMP280;59655;42.590;23.364;2023-08-31T00:01:08;91098.47;;;20.64
71807;BMP280;59655;42.590;23.364;2023-08-31T00:03:34;91091.34;;;20.55
71807;BMP280;59655;42.590;23.364;2023-08-31T00:06:03;91084.75;;;20.58
71807;BMP280;59655;42.590;23.364;2023-08-31T00:08:34;91088.44;;;20.33
71807;BMP280;59655;42.590;23.364;2023-08-31T00:11:00;91087.56;;;20.28
71807;BMP280;59655;42.590;23.364;2023-08-31T00:13:26;91092.41;;;20.14
71807;BMP280;59655;42.590;23.364;2023-08-31T00:15:55;91077.75;;;20.35
71807;BMP280;59655;42.590;23.364;2023-08-31T00:18:26;91088.63;;;20.37
71807;BMP280;59655;42.590;23.364;2023-08-31T00:20:53;91089.78;;;20.32
71807;BMP280;59655;42.590;23.364;2023-08-31T00:23:20;91087.56;;;20.28
71807;BMP280;59655;42.590;23.364;2023-08-31T00:25:46;91089.44;;;20.24
71807;BMP280;59655;42.590;23.364;2023-08-31T00:28:32;91099.59;;;20.25
71807;BMP280;59655;42.590;23.364;2023-08-31T00:31:00;91102.56;;;20.32
71807;BMP280;59655;42.590;23.364;2023-08-31T00:33:29;91096.47;;;20.31
71807;BMP280;59655;42.590;23.364;2023-08-31T00:35:54;91105.25;;;20.32
71807;BMP280;59655;42.590;23.364;2023-08-31T00:38:21;91106.38;;;20.26
71807;BMP280;59655;42.590;23.364;2023-08-31T00:40:47;91102.56;;;20.16
71807;BMP280;59655;42.590;23.364;2023-08-31T00:43:15;91105.50;;;20.22
71807;BMP280;59655;42.590;23.364;2023-08-31T00:45:41;91099.97;;;20.18
71807;BMP280;59655;42.590;23.364;2023-08-31T00:48:07;91101.44;;;20.05
71807;BMP280;59655;42.590;23.364;2023-08-31T00:50:32;91113.97;;;20.14
71807;BMP280;59655;42.590;23.364;2023-08-31T00:52:58;91108.56;;;20.14
71807;BMP280;59655;42.590;23.364;2023-08-31T00:55:24;91109.25;;;20.15
71807;BMP280;59655;42.590;23.364;2023-08-31T00:57:50;91099.59;;;20.10
71807;BMP280;59655;42.590;23.364;2023-08-31T01:00:16;91101.19;;;19.99
71807;BMP280;59655;42.590;23.364;2023-08-31T01:02:59;91106.56;;;19.99
71807;BMP280;59655;42.590;23.364;2023-08-31T01:06:02;91097.53;;;20.08
71807;BMP280;59655;42.590;23.364;2023-08-31T01:11:34;91104.66;;;20.01
71807;BMP280;59655;42.590;23.364;2023-08-31T01:14:11;91111.09;;;20.10
71807;BMP280;59655;42.590;23.364;2023-08-31T01:16:39;91110.75;;;20.18
71807;BMP280;59655;42.590;23.364;2023-08-31T01:19:16;91107.53;;;20.05
71807;BMP280;59655;42.590;23.364;2023-08-31T01:21:46;91107.41;;;20.03
71807;BMP280;59655;42.590;23.364;2023-08-31T01:24:14;91114.03;;;20.16
71807;BMP280;59655;42.590;23.364;2023-08-31T01:26:40;91112.13;;;20.19
71807;BMP280;59655;42.590;23.364;2023-08-31T01:29:07;91117.88;;;20.11
71807;BMP280;59655;42.590;23.364;2023-08-31T01:31:41;91114.66;;;19.83
71807;BMP280;59655;42.590;23.364;2023-08-31T01:34:08;91113.75;;;19.94
71807;BMP280;59655;42.590;23.364;2023-08-31T01:36:36;91112.31;;;19.91
71807;BMP280;59655;42.590;23.364;2023-08-31T01:39:30;91111.38;;;20.00
71807;BMP280;59655;42.590;23.364;2023-08-31T01:42:05;91110.75;;;20.02
71807;BMP280;59655;42.590;23.364;2023-08-31T01:44:32;91104.66;;;19.86
71807;BMP280;59655;42.590;23.364;2023-08-31T01:47:04;91104.31;;;19.93
71807;BMP280;59655;42.590;23.364;2023-08-31T01:49:38;91108.66;;;19.85
71807;BMP280;59655;42.590;23.364;2023-08-31T01:52:03;91113.84;;;19.80
71807;BMP280;59655;42.590;23.364;2023-08-31T01:54:29;91106.28;;;19.77
71807;BMP280;59655;42.590;23.364;2023-08-31T01:56:54;91109.88;;;19.81
71807;BMP280;59655;42.590;23.364;2023-08-31T01:59:20;91123.34;;;19.97
71807;BMP280;59655;42.590;23.364;2023-08-31T02:01:45;91108.66;;;20.00
71807;BMP280;59655;42.590;23.364;2023-08-31T02:04:11;91110.47;;;19.96
71807;BMP280;59655;42.590;23.364;2023-08-31T02:06:36;91116.38;;;19.92
71807;BMP280;59655;42.590;23.364;2023-08-31T02:09:01;91118.47;;;19.94
71807;BMP280;59655;42.590;23.364;2023-08-31T02:11:27;91115.94;;;19.82
71807;BMP280;59655;42.590;23.364;2023-08-31T02:13:52;91124.88;;;19.71
71807;BMP280;59655;42.590;23.364;2023-08-31T02:16:18;91120.09;;;19.69
71807;BMP280;59655;42.590;23.364;2023-08-31T02:18:44;91121.50;;;19.70
71807;BMP280;59655;42.590;23.364;2023-08-31T02:21:11;91115.78;;;19.62
71807;BMP280;59655;42.590;23.364;2023-08-31T02:23:41;91126.28;;;19.72
71807;BMP280;59655;42.590;23.364;2023-08-31T02:26:08;91131.75;;;19.74
71807;BMP280;59655;42.590;23.364;2023-08-31T02:28:36;91124.38;;;19.74
71807;BMP280;59655;42.590;23.364;2023-08-31T02:31:02;91129.41;;;19.66
71807;BMP280;59655;42.590;23.364;2023-08-31T02:33:28;91127.06;;;19.74
71807;BMP280;59655;42.590;23.364;2023-08-31T02:35:56;91120.72;;;19.68
71807;BMP280;59655;42.590;23.364;2023-08-31T02:38:22;91122.88;;;19.71
71807;BMP280;59655;42.590;23.364;2023-08-31T02:40:48;91130.25;;;19.55
71807;BMP280;59655;42.590;23.364;2023-08-31T02:43:14;91133.53;;;19.53
71807;BMP280;59655;42.590;23.364;2023-08-31T02:45:40;91138.31;;;19.55
71807;BMP280;59655;42.590;23.364;2023-08-31T02:48:08;91131.44;;;19.52
71807;BMP280;59655;42.590;23.364;2023-08-31T02:50:35;91128.06;;;19.51
71807;BMP280;59655;42.590;23.364;2023-08-31T02:53:06;91129.78;;;19.45
71807;BMP280;59655;42.590;23.364;2023-08-31T02:55:35;91129.09;;;19.44
71807;BMP280;59655;42.590;23.364;2023-08-31T02:58:08;91125.59;;;19.42
71807;BMP280;59655;42.590;23.364;2023-08-31T03:00:35;91126.88;;;19.41
71807;BMP280;59655;42.590;23.364;2023-08-31T03:03:03;91138.00;;;19.33
71807;BMP280;59655;42.590;23.364;2023-08-31T03:05:40;91138.13;;;19.35
71807;BMP280;59655;42.590;23.364;2023-08-31T03:08:11;91138.44;;;19.13
71807;BMP280;59655;42.590;23.364;2023-08-31T03:10:37;91142.47;;;19.13
71807;BMP280;59655;42.590;23.364;2023-08-31T03:13:08;91135.91;;;19.02
71807;BMP280;59655;42.590;23.364;2023-08-31T03:15:33;91145.25;;;19.01
71807;BMP280;59655;42.590;23.364;2023-08-31T03:17:59;91160.09;;;19.02
71807;BMP280;59655;42.590;23.364;2023-08-31T03:20:26;91153.63;;;19.07
71807;BMP280;59655;42.590;23.364;2023-08-31T03:22:51;91165.25;;;19.11
71807;BMP280;59655;42.590;23.364;2023-08-31T03:25:18;91158.50;;;19.10
71807;BMP280;59655;42.590;23.364;2023-08-31T03:27:44;91153.69;;;19.09
71807;BMP280;59655;42.590;23.364;2023-08-31T03:30:10;91153.72;;;18.95
71807;BMP280;59655;42.590;23.364;2023-08-31T03:32:38;91151.44;;;19.03
71807;BMP280;59655;42.590;23.364;2023-08-31T03:35:05;91158.41;;;18.95
71807;BMP280;59655;42.590;23.364;2023-08-31T03:37:31;91154.34;;;18.94
71807;BMP280;59655;42.590;23.364;2023-08-31T03:39:57;91158.94;;;18.91
71807;BMP280;59655;42.590;23.364;2023-08-31T03:42:25;91153.72;;;18.95
71807;BMP280;59655;42.590;23.364;2023-08-31T03:44:51;91152.97;;;18.93
71807;BMP280;59655;42.590;23.364;2023-08-31T03:47:17;91156.06;;;18.87
71807;BMP280;59655;42.590;23.364;2023-08-31T03:49:42;91160.53;;;18.69
71807;BMP280;59655;42.590;23.364;2023-08-31T03:52:07;91171.78;;;18.51
71807;BMP280;59655;42.590;23.364;2023-08-31T03:54:33;91172.06;;;18.57
71807;BMP280;59655;42.590;23.364;2023-08-31T03:57:01;91165.91;;;18.41
71807;BMP280;59655;42.590;23.364;2023-08-31T03:59:27;91168.72;;;18.57
71807;BMP280;59655;42.590;23.364;2023-08-31T04:01:52;91177.97;;;18.68
71807;BMP280;59655;42.590;23.364;2023-08-31T04:04:18;91185.50;;;18.71
71807;BMP280;59655;42.590;23.364;2023-08-31T04:06:43;91197.88;;;18.62
71807;BMP280;59655;42.590;23.364;2023-08-31T04:09:09;91199.94;;;18.50
71807;BMP280;59655;42.590;23.364;2023-08-31T04:11:34;91198.28;;;18.57
71807;BMP280;59655;42.590;23.364;2023-08-31T04:13:59;91195.28;;;18.64
71807;BMP280;59655;42.590;23.364;2023-08-31T04:16:25;91210.91;;;18.68
71807;BMP280;59655;42.590;23.364;2023-08-31T04:18:50;91222.66;;;18.75
71807;BMP280;59655;42.590;23.364;2023-08-31T04:21:19;91217.75;;;18.71
71807;BMP280;59655;42.590;23.364;2023-08-31T04:23:44;91217.47;;;18.65
71807;BMP280;59655;42.590;23.364;2023-08-31T04:26:14;91213.41;;;18.64
71807;BMP280;59655;42.590;23.364;2023-08-31T04:28:40;91212.38;;;18.71
71807;BMP280;59655;42.590;23.364;2023-08-31T04:31:08;91208.91;;;18.69
71807;BMP280;59655;42.590;23.364;2023-08-31T04:33:35;91216.41;;;18.70
71807;BMP280;59655;42.590;23.364;2023-08-31T04:36:01;91211.03;;;18.70
71807;BMP280;59655;42.590;23.364;2023-08-31T04:38:26;91211.72;;;18.71
71807;BMP280;59655;42.590;23.364;2023-08-31T04:40:51;91218.19;;;18.65
71807;BMP280;59655;42.590;23.364;2023-08-31T04:43:17;91230.03;;;18.74
71807;BMP280;59655;42.590;23.364;2023-08-31T04:45:42;91222.84;;;18.79
71807;BMP280;59655;42.590;23.364;2023-08-31T04:48:08;91224.75;;;18.76
71807;BMP280;59655;42.590;23.364;2023-08-31T04:50:33;91233.63;;;18.79
71807;BMP280;59655;42.590;23.364;2023-08-31T04:52:59;91227.72;;;18.82
71807;BMP280;59655;42.590;23.364;2023-08-31T04:55:24;91229.41;;;18.89
71807;BMP280;59655;42.590;23.364;2023-08-31T04:57:50;91234.72;;;18.87
71807;BMP280;59655;42.590;23.364;2023-08-31T05:00:16;91224.66;;;18.88
71807;BMP280;59655;42.590;23.364;2023-08-31T05:02:42;91223.66;;;18.95
71807;BMP280;59655;42.590;23.364;2023-08-31T05:05:08;91233.44;;;19.02
71807;BMP280;59655;42.590;23.364;2023-08-31T05:07:34;91234.59;;;18.99
71807;BMP280;59655;42.590;23.364;2023-08-31T05:09:59;91230.94;;;19.06
71807;BMP280;59655;42.590;23.364;2023-08-31T05:12:25;91224.94;;;19.08
71807;BMP280;59655;42.590;23.364;2023-08-31T05:14:50;91230.53;;;19.12
71807;BMP280;59655;42.590;23.364;2023-08-31T05:17:16;91221.56;;;19.07
71807;BMP280;59655;42.590;23.364;2023-08-31T05:19:41;91223.75;;;19.11
71807;BMP280;59655;42.590;23.364;2023-08-31T05:22:07;91228.81;;;19.19
71807;BMP280;59655;42.590;23.364;2023-08-31T05:24:33;91230.22;;;19.20
71807;BMP280;59655;42.590;23.364;2023-08-31T05:26:58;91232.19;;;19.19
71807;BMP280;59655;42.590;23.364;2023-08-31T05:29:24;91230.91;;;19.20
71807;BMP280;59655;42.590;23.364;2023-08-31T05:31:51;91230.41;;;19.24
71807;BMP280;59655;42.590;23.364;2023-08-31T05:34:17;91233.91;;;19.26
71807;BMP280;59655;42.590;23.364;2023-08-31T05:36:45;91226.00;;;19.30
71807;BMP280;59655;42.590;23.364;2023-08-31T05:39:11;91225.41;;;19.32
71807;BMP280;59655;42.590;23.364;2023-08-31T05:41:36;91220.13;;;19.34
71807;BMP280;59655;42.590;23.364;2023-08-31T05:44:02;91225.09;;;19.40
71807;BMP280;59655;42.590;23.364;2023-08-31T05:46:27;91228.56;;;19.42
71807;BMP280;59655;42.590;23.364;2023-08-31T05:48:52;91236.06;;;19.44
71807;BMP280;59655;42.590;23.364;2023-08-31T05:51:18;91238.13;;;19.45
71807;BMP280;59655;42.590;23.364;2023-08-31T05:53:43;91232.34;;;19.51
71807;BMP280;59655;42.590;23.364;2023-08-31T05:56:09;91228.25;;;19.50
71807;BMP280;59655;42.590;23.364;2023-08-31T05:58:35;91235.63;;;19.49
71807;BMP280;59655;42.590;23.364;2023-08-31T06:01:03;91243.09;;;19.51
71807;BMP280;59655;42.590;23.364;2023-08-31T06:03:28;91251.88;;;19.51
71807;BMP280;59655;42.590;23.364;2023-08-31T06:05:55;91247.50;;;19.58
71807;BMP280;59655;42.590;23.364;2023-08-31T06:08:21;91240.69;;;19.57
71807;BMP280;59655;42.590;23.364;2023-08-31T06:10:47;91244.88;;;19.60
71807;BMP280;59655;42.590;23.364;2023-08-31T06:13:12;91246.34;;;19.63
71807;BMP280;59655;42.590;23.364;2023-08-31T06:15:37;91251.72;;;19.63
71807;BMP280;59655;42.590;23.364;2023-08-31T06:18:06;91253.84;;;19.65
71807;BMP280;59655;42.590;23.364;2023-08-31T06:20:31;91245.75;;;19.65
71807;BMP280;59655;42.590;23.364;2023-08-31T06:22:58;91248.63;;;19.69
71807;BMP280;59655;42.590;23.364;2023-08-31T06:25:24;91256.19;;;19.72
71807;BMP280;59655;42.590;23.364;2023-08-31T06:27:50;91252.19;;;19.73
71807;BMP280;59655;42.590;23.364;2023-08-31T06:30:17;91261.19;;;19.78
71807;BMP280;59655;42.590;23.364;2023-08-31T06:32:44;91258.50;;;19.78
71807;BMP280;59655;42.590;23.364;2023-08-31T06:35:11;91269.44;;;19.82
71807;BMP280;59655;42.590;23.364;2023-08-31T06:37:48;91270.25;;;19.85
71807;BMP280;59655;42.590;23.364;2023-08-31T06:40:15;91277.69;;;19.86
71807;BMP280;59655;42.590;23.364;2023-08-31T06:42:41;91283.09;;;19.86
71807;BMP280;59655;42.590;23.364;2023-08-31T06:45:07;91283.88;;;19.89
71807;BMP280;59655;42.590;23.364;2023-08-31T06:47:33;91283.38;;;19.92
71807;BMP280;59655;42.590;23.364;2023-08-31T06:49:59;91284.84;;;19.95
71807;BMP280;59655;42.590;23.364;2023-08-31T06:52:28;91284.28;;;19.97
71807;BMP280;59655;42.590;23.364;2023-08-31T06:54:54;91280.25;;;19.98
71807;BMP280;59655;42.590;23.364;2023-08-31T06:57:24;91289.03;;;19.98
71807;BMP280;59655;42.590;23.364;2023-08-31T06:59:50;91289.03;;;19.98
71807;BMP280;59655;42.590;23.364;2023-08-31T07:02:17;91284.53;;;20.03
71807;BMP280;59655;42.590;23.364;2023-08-31T07:04:44;91293.41;;;20.05
71807;BMP280;59655;42.590;23.364;2023-08-31T07:07:29;91302.28;;;20.08
71807;BMP280;59655;42.590;23.364;2023-08-31T07:10:01;91296.91;;;20.08
71807;BMP280;59655;42.590;23.364;2023-08-31T07:12:34;91297.06;;;20.12
71807;BMP280;59655;42.590;23.364;2023-08-31T07:15:00;91293.16;;;20.15
71807;BMP280;59655;42.590;23.364;2023-08-31T07:17:33;91308.13;;;20.18
71807;BMP280;59655;42.590;23.364;2023-08-31T07:20:01;91308.22;;;20.20
71807;BMP280;59655;42.590;23.364;2023-08-31T07:22:38;91301.63;;;20.23
71807;BMP280;59655;42.590;23.364;2023-08-31T07:25:07;91307.19;;;20.27
71807;BMP280;59655;42.590;23.364;2023-08-31T07:27:36;91304.41;;;20.25
71807;BMP280;59655;42.590;23.364;2023-08-31T07:30:15;91297.69;;;20.26
71807;BMP280;59655;42.590;23.364;2023-08-31T07:32:46;91306.56;;;20.29
71807;BMP280;59655;42.590;23.364;2023-08-31T07:35:13;91304.69;;;20.32
71807;BMP280;59655;42.590;23.364;2023-08-31T07:37:40;91307.56;;;20.36
71807;BMP280;59655;42.590;23.364;2023-08-31T07:40:07;91311.84;;;20.41
71807;BMP280;59655;42.590;23.364;2023-08-31T07:42:35;91308.50;;;20.42
71807;BMP280;59655;42.590;23.364;2023-08-31T07:45:05;91311.38;;;20.46
71807;BMP280;59655;42.590;23.364;2023-08-31T07:47:37;91313.47;;;20.48
71807;BMP280;59655;42.590;23.364;2023-08-31T07:50:04;91317.06;;;20.52
71807;BMP280;59655;42.590;23.364;2023-08-31T07:52:30;91317.81;;;20.55
71807;BMP280;59655;42.590;23.364;2023-08-31T07:54:57;91323.38;;;20.59
71807;BMP280;59655;42.590;23.364;2023-08-31T07:57:25;91326.19;;;20.61
71807;BMP280;59655;42.590;23.364;2023-08-31T07:59:50;91320.28;;;20.65
71807;BMP280;59655;42.590;23.364;2023-08-31T08:02:20;91324.63;;;20.72
71807;BMP280;59655;42.590;23.364;2023-08-31T08:04:54;91316.72;;;20.76
71807;BMP280;59655;42.590;23.364;2023-08-31T08:07:24;91326.28;;;20.79
71807;BMP280;59655;42.590;23.364;2023-08-31T08:09:52;91319.56;;;20.80
71807;BMP280;59655;42.590;23.364;2023-08-31T08:12:18;91323.78;;;20.83
71807;BMP280;59655;42.590;23.364;2023-08-31T08:14:49;91321.94;;;20.88
71807;BMP280;59655;42.590;23.364;2023-08-31T08:17:14;91322.13;;;20.92
71807;BMP280;59655;42.590;23.364;2023-08-31T08:19:43;91323.50;;;20.93
71807;BMP280;59655;42.590;23.364;2023-08-31T08:22:08;91325.69;;;20.96
71807;BMP280;59655;42.590;23.364;2023-08-31T08:24:35;91329.84;;;20.99
71807;BMP280;59655;42.590;23.364;2023-08-31T08:27:02;91327.91;;;21.02
71807;BMP280;59655;42.590;23.364;2023-08-31T08:29:28;91325.94;;;21.02
71807;BMP280;59655;42.590;23.364;2023-08-31T08:31:54;91329.41;;;21.05
71807;BMP280;59655;42.590;23.364;2023-08-31T08:34:26;91332.94;;;21.10
71807;BMP280;59655;42.590;23.364;2023-08-31T08:36:56;91331.75;;;21.13
71807;BMP280;59655;42.590;23.364;2023-08-31T08:39:24;91333.94;;;21.16
71807;BMP280;59655;42.590;23.364;2023-08-31T08:41:53;91336.00;;;21.18
71807;BMP280;59655;42.590;23.364;2023-08-31T08:44:24;91330.59;;;21.18
71807;BMP280;59655;42.590;23.364;2023-08-31T08:46:51;91332.69;;;21.19
71807;BMP280;59655;42.590;23.364;2023-08-31T08:49:20;91333.47;;;21.22
71807;BMP280;59655;42.590;23.364;2023-08-31T08:51:46;91332.25;;;21.25
71807;BMP280;59655;42.590;23.364;2023-08-31T08:54:14;91325.53;;;21.26
71807;BMP280;59655;42.590;23.364;2023-08-31T08:56:39;91323.63;;;21.29
71807;BMP280;59655;42.590;23.364;2023-08-31T08:59:14;91327.81;;;21.32
71807;BMP280;59655;42.590;23.364;2023-08-31T09:01:40;91329.97;;;21.35
71807;BMP280;59655;42.590;23.364;2023-08-31T09:04:09;91325.34;;;21.38
71807;BMP280;59655;42.590;23.364;2023-08-31T09:06:36;91328.06;;;21.38
71807;BMP280;59655;42.590;23.364;2023-08-31T09:09:01;91318.53;;;21.37
71807;BMP280;59655;42.590;23.364;2023-08-31T09:11:29;91321.44;;;21.41
71807;BMP280;59655;42.590;23.364;2023-08-31T09:13:56;91320.97;;;21.46
71807;BMP280;59655;42.590;23.364;2023-08-31T09:16:29;91317.59;;;21.46
71807;BMP280;59655;42.590;23.364;2023-08-31T09:18:56;91318.69;;;21.57
71807;BMP280;59655;42.590;23.364;2023-08-31T09:21:42;91320.78;;;21.58
71807;BMP280;59655;42.590;23.364;2023-08-31T09:24:15;91324.94;;;21.61
71807;BMP280;59655;42.590;23.364;2023-08-31T09:26:47;91326.94;;;21.61
71807;BMP280;59655;42.590;23.364;2023-08-31T09:29:13;91322.28;;;21.63
71807;BMP280;59655;42.590;23.364;2023-08-31T09:31:42;91326.63;;;21.70
71807;BMP280;59655;42.590;23.364;2023-08-31T09:34:08;91328.81;;;21.74
71807;BMP280;59655;42.590;23.364;2023-08-31T09:36:35;91322.78;;;21.75
71807;BMP280;59655;42.590;23.364;2023-08-31T09:39:02;91326.81;;;21.74
71807;BMP280;59655;42.590;23.364;2023-08-31T09:41:32;91328.88;;;21.76
71807;BMP280;59655;42.590;23.364;2023-08-31T09:44:18;91329.56;;;21.77
71807;BMP280;59655;42.590;23.364;2023-08-31T09:46:44;91328.19;;;21.75
71807;BMP280;59655;42.590;23.364;2023-08-31T09:49:16;91326.88;;;21.77
71807;BMP280;59655;42.590;23.364;2023-08-31T09:51:48;91316.94;;;21.81
71807;BMP280;59655;42.590;23.364;2023-08-31T09:54:15;91311.16;;;21.89
71807;BMP280;59655;42.590;23.364;2023-08-31T09:56:43;91326.13;;;21.92
71807;BMP280;59655;42.590;23.364;2023-08-31T09:59:09;91320.88;;;21.96
71807;BMP280;59655;42.590;23.364;2023-08-31T10:01:36;91312.91;;;22.00
71807;BMP280;59655;42.590;23.364;2023-08-31T10:04:02;91313.09;;;22.04
71807;BMP280;59655;42.590;23.364;2023-08-31T10:06:29;91309.81;;;22.08
71807;BMP280;59655;42.590;23.364;2023-08-31T10:08:55;91303.94;;;22.13
71807;BMP280;59655;42.590;23.364;2023-08-31T10:11:21;91301.31;;;22.15
71807;BMP280;59655;42.590;23.364;2023-08-31T10:13:48;91302.94;;;22.22
71807;BMP280;59655;42.590;23.364;2023-08-31T10:16:18;91304.47;;;22.28
71807;BMP280;59655;42.590;23.364;2023-08-31T10:18:48;91305.31;;;22.32
71807;BMP280;59655;42.590;23.364;2023-08-31T10:21:17;91315.75;;;22.40
71807;BMP280;59655;42.590;23.364;2023-08-31T10:23:49;91304.06;;;22.53
71807;BMP280;59655;42.590;23.364;2023-08-31T10:26:30;91305.72;;;22.62
71807;BMP280;59655;42.590;23.364;2023-08-31T10:28:59;91312.06;;;22.69
71807;BMP280;59655;42.590;23.364;2023-08-31T10:31:28;91311.75;;;22.61
71807;BMP280;59655;42.590;23.364;2023-08-31T10:34:02;91314.34;;;22.77
71807;BMP280;59655;42.590;23.364;2023-08-31T10:39:13;91304.91;;;22.78
71807;BMP280;59655;42.590;23.364;2023-08-31T10:41:39;91322.53;;;22.79
71807;BMP280;59655;42.590;23.364;2023-08-31T10:44:24;91318.09;;;22.87
71807;BMP280;59655;42.590;23.364;2023-08-31T10:46:51;91326.22;;;22.87
71807;BMP280;59655;42.590;23.364;2023-08-31T10:49:19;91324.91;;;22.88
71807;BMP280;59655;42.590;23.364;2023-08-31T10:51:57;91337.75;;;22.88
71807;BMP280;59655;42.590;23.364;2023-08-31T10:54:32;91324.75;;;23.04
71807;BMP280;59655;42.590;23.364;2023-08-31T10:59:53;91323.00;;;23.13
71807;BMP280;59655;42.590;23.364;2023-08-31T11:02:42;91328.28;;;23.29
71807;BMP280;59655;42.590;23.364;2023-08-31T11:05:11;91333.78;;;23.11
71807;BMP280;59655;42.590;23.364;2023-08-31T11:07:38;91327.75;;;23.12
71807;BMP280;59655;42.590;23.364;2023-08-31T11:10:13;91334.44;;;23.11
71807;BMP280;59655;42.590;23.364;2023-08-31T11:12:43;91341.50;;;23.18
71807;BMP280;59655;42.590;23.364;2023-08-31T11:15:11;91339.13;;;23.09
71807;BMP280;59655;42.590;23.364;2023-08-31T11:17:37;91342.88;;;23.19
71807;BMP280;59655;42.590;23.364;2023-08-31T11:20:05;91333.41;;;23.20
71807;BMP280;59655;42.590;23.364;2023-08-31T11:22:32;91336.25;;;23.25
71807;BMP280;59655;42.590;23.364;2023-08-31T11:25:00;91325.00;;;23.32
71807;BMP280;59655;42.590;23.364;2023-08-31T11:27:30;91334.75;;;23.19
71807;BMP280;59655;42.590;23.364;2023-08-31T11:29:57;91328.31;;;23.31
71807;BMP280;59655;42.590;23.364;2023-08-31T11:32:24;91330.41;;;23.32
71807;BMP280;59655;42.590;23.364;2023-08-31T11:34:50;91342.97;;;23.43
71807;BMP280;59655;42.590;23.364;2023-08-31T11:37:17;91333.25;;;23.56
71807;BMP280;59655;42.590;23.364;2023-08-31T11:39:49;91330.47;;;23.54
71807;BMP280;59655;42.590;23.364;2023-08-31T11:42:16;91330.47;;;23.54
71807;BMP280;59655;42.590;23.364;2023-08-31T11:44:41;91327.75;;;23.54
71807;BMP280;59655;42.590;23.364;2023-08-31T11:47:07;91326.44;;;23.55
71807;BMP280;59655;42.590;23.364;2023-08-31T11:49:33;91320.81;;;23.49
71807;BMP280;59655;42.590;23.364;2023-08-31T11:51:59;91314.50;;;23.42
71807;BMP280;59655;42.590;23.364;2023-08-31T11:54:25;91322.63;;;23.42
71807;BMP280;59655;42.590;23.364;2023-08-31T11:57:03;91315.63;;;23.35
71807;BMP280;59655;42.590;23.364;2023-08-31T11:59:34;91323.16;;;23.37
71807;BMP280;59655;42.590;23.364;2023-08-31T12:02:00;91323.88;;;23.39
71807;BMP280;59655;42.590;23.364;2023-08-31T12:04:26;91317.00;;;23.36
71807;BMP280;59655;42.590;23.364;2023-08-31T12:06:53;91315.63;;;23.35
71807;BMP280;59655;42.590;23.364;2023-08-31T12:09:27;91319.84;;;23.40
71807;BMP280;59655;42.590;23.364;2023-08-31T12:11:54;91323.94;;;23.41
71807;BMP280;59655;42.590;23.364;2023-08-31T12:14:24;91325.59;;;23.51
71807;BMP280;59655;42.590;23.364;2023-08-31T12:16:50;91321.88;;;23.40
71807;BMP280;59655;42.590;23.364;2023-08-31T12:19:16;91323.28;;;23.41
71807;BMP280;59655;42.590;23.364;2023-08-31T12:21:43;91309.78;;;23.43
71807;BMP280;59655;42.590;23.364;2023-08-31T12:24:10;91308.50;;;23.46
71807;BMP280;59655;42.590;23.364;2023-08-31T12:26:35;91311.16;;;23.44
71807;BMP280;59655;42.590;23.364;2023-08-31T12:29:04;91302.28;;;23.41
71807;BMP280;59655;42.590;23.364;2023-08-31T12:31:30;91308.94;;;23.38
71807;BMP280;59655;42.590;23.364;2023-08-31T12:33:55;91315.50;;;23.31
71807;BMP280;59655;42.590;23.364;2023-08-31T12:36:22;91319.88;;;23.20
71807;BMP280;59655;42.590;23.364;2023-08-31T12:38:48;91305.34;;;23.32
71807;BMP280;59655;42.590;23.364;2023-08-31T12:41:17;91311.03;;;23.40
71807;BMP280;59655;42.590;23.364;2023-08-31T12:43:44;91317.56;;;23.33
71807;BMP280;59655;42.590;23.364;2023-08-31T12:46:16;91313.03;;;23.17
71807;BMP280;59655;42.590;23.364;2023-08-31T12:48:43;91317.16;;;23.20
71807;BMP280;59655;42.590;23.364;2023-08-31T12:51:08;91319.31;;;23.24
71807;BMP280;59655;42.590;23.364;2023-08-31T12:53:37;91316.63;;;23.24
71807;BMP280;59655;42.590;23.364;2023-08-31T12:56:07;91315.16;;;23.21
71807;BMP280;59655;42.590;23.364;2023-08-31T12:58:32;91312.19;;;23.13
71807;BMP280;59655;42.590;23.364;2023-08-31T13:01:01;91312.78;;;23.11
71807;BMP280;59655;42.590;23.364;2023-08-31T13:03:26;91314.69;;;23.07
71807;BMP280;59655;42.590;23.364;2023-08-31T13:05:53;91320.03;;;23.05
71807;BMP280;59655;42.590;23.364;2023-08-31T13:08:19;91323.38;;;23.03
71807;BMP280;59655;42.590;23.364;2023-08-31T13:10:53;91312.47;;;23.01
71807;BMP280;59655;42.590;23.364;2023-08-31T13:13:20;91325.31;;;23.01
71807;BMP280;59655;42.590;23.364;2023-08-31T13:15:47;91317.88;;;23.01
71807;BMP280;59655;42.590;23.364;2023-08-31T13:18:12;91336.00;;;22.96
71807;BMP280;59655;42.590;23.364;2023-08-31T13:20:38;91341.19;;;22.90
71807;BMP280;59655;42.590;23.364;2023-08-31T13:23:03;91336.34;;;22.87
71807;BMP280;59655;42.590;23.364;2023-08-31T13:25:29;91321.00;;;22.93
71807;BMP280;59655;42.590;23.364;2023-08-31T13:27:54;91337.53;;;23.02
71807;BMP280;59655;42.590;23.364;2023-08-31T13:30:20;91333.28;;;22.96
71807;BMP280;59655;42.590;23.364;2023-08-31T13:32:45;91332.53;;;23.34
71807;BMP280;59655;42.590;23.364;2023-08-31T13:35:11;91327.56;;;23.48
71807;BMP280;59655;42.590;23.364;2023-08-31T13:37:36;91328.25;;;23.49
71807;BMP280;59655;42.590;23.364;2023-08-31T13:40:02;91327.44;;;24.10
71807;BMP280;59655;42.590;23.364;2023-08-31T13:42:34;91331.91;;;24.01
71807;BMP280;59655;42.590;23.364;2023-08-31T13:45:00;91328.28;;;23.70
71807;BMP280;59655;42.590;23.364;2023-08-31T13:47:28;91329.19;;;23.57
71807;BMP280;59655;42.590;23.364;2023-08-31T13:49:54;91331.78;;;23.53
71807;BMP280;59655;42.590;23.364;2023-08-31T13:52:19;91334.25;;;23.45
71807;BMP280;59655;42.590;23.364;2023-08-31T13:54:46;91345.00;;;23.43
71807;BMP280;59655;42.590;23.364;2023-08-31T13:57:11;91346.31;;;23.42
71807;BMP280;59655;42.590;23.364;2023-08-31T13:59:42;91343.88;;;23.30
71807;BMP280;59655;42.590;23.364;2023-08-31T14:02:07;91345.16;;;23.27
71807;BMP280;59655;42.590;23.364;2023-08-31T14:04:33;91343.09;;;23.26
71807;BMP280;59655;42.590;23.364;2023-08-31T14:06:58;91349.81;;;23.25
71807;BMP280;59655;42.590;23.364;2023-08-31T14:09:24;91360.22;;;23.12